createdAt,value
2019-02-25T00:00:48.141Z,3.14
2019-02-25T00:01:48.308Z,3.16
2019-02-25T00:02:48.480Z,3.11
2019-02-25T00:03:48.655Z,3.16
2019-02-25T00:04:48.821Z,3.13
2019-02-25T00:05:48.993Z,3.18
2019-02-25T00:06:49.158Z,3.08
2019-02-25T00:07:49.336Z,3.04
2019-02-25T00:08:49.502Z,3.05
2019-02-25T00:09:49.673Z,2.98
2019-02-25T00:10:49.840Z,2.98
2019-02-25T00:11:50.013Z,2.92
2019-02-25T00:12:50.181Z,2.90
2019-02-25T00:13:50.356Z,2.86
2019-02-25T00:14:50.526Z,2.87
2019-02-25T00:15:50.694Z,2.89
2019-02-25T00:16:50.872Z,2.93
2019-02-25T00:17:51.033Z,2.95
2019-02-25T00:18:51.210Z,2.97
2019-02-25T00:19:51.379Z,3.04
2019-02-25T00:20:51.556Z,3.07
2019-02-25T00:21:51.720Z,3.07
2019-02-25T00:22:51.884Z,3.07
2019-02-25T00:23:52.054Z,2.89
2019-02-25T00:24:52.227Z,2.74
2019-02-25T00:25:52.397Z,2.56
2019-02-25T00:26:52.572Z,2.53
2019-02-25T00:27:52.741Z,2.51
2019-02-25T00:28:52.915Z,2.54
2019-02-25T00:29:53.086Z,2.53
2019-02-25T00:30:53.256Z,2.46
2019-02-25T00:31:53.435Z,2.60
2019-02-25T00:32:53.600Z,2.54
2019-02-25T00:33:53.777Z,2.50
2019-02-25T00:34:53.946Z,2.64
2019-02-25T00:35:54.115Z,2.68
2019-02-25T00:36:54.283Z,2.77
2019-02-25T00:37:54.466Z,2.75
2019-02-25T00:38:54.630Z,2.68
2019-02-25T00:39:54.801Z,2.72
2019-02-25T00:40:54.962Z,2.72
2019-02-25T00:41:55.139Z,2.72
2019-02-25T00:42:55.311Z,2.71
2019-02-25T00:43:55.473Z,2.75
2019-02-25T00:44:55.650Z,2.68
2019-02-25T00:45:55.820Z,2.68
2019-02-25T00:46:55.994Z,2.74
2019-02-25T00:47:56.149Z,2.65
2019-02-25T00:48:56.319Z,2.57
2019-02-25T00:49:56.493Z,2.61
2019-02-25T00:50:56.665Z,2.64
2019-02-25T00:51:56.832Z,2.62
2019-02-25T00:52:57.003Z,2.71
2019-02-25T00:53:57.173Z,2.71
2019-02-25T00:54:57.345Z,2.56
2019-02-25T00:55:57.516Z,2.64
2019-02-25T00:56:57.684Z,2.64
2019-02-25T00:57:57.860Z,2.67
2019-02-25T00:58:58.028Z,2.62
2019-02-25T00:59:58.198Z,2.64
2019-02-25T01:00:58.374Z,2.64
2019-02-25T01:01:58.544Z,2.68
2019-02-25T01:02:58.709Z,2.68
2019-02-25T01:04:59.043Z,2.56
2019-02-25T01:05:59.220Z,2.60
2019-02-25T01:06:59.386Z,2.61
2019-02-25T01:07:59.559Z,2.53
2019-02-25T01:08:59.727Z,2.60
2019-02-25T01:09:59.896Z,2.57
2019-02-25T01:11:00.074Z,2.46
2019-02-25T01:12:00.236Z,2.50
2019-02-25T01:13:00.417Z,2.54
2019-02-25T01:14:00.571Z,2.56
2019-02-25T01:15:00.743Z,2.56
2019-02-25T01:16:00.914Z,2.60
2019-02-25T01:17:01.095Z,2.57
2019-02-25T01:18:01.249Z,2.69
2019-02-25T01:19:01.416Z,2.69
2019-02-25T01:20:01.608Z,2.72
2019-02-25T01:21:01.757Z,2.75
2019-02-25T01:22:01.927Z,2.85
2019-02-25T01:23:02.094Z,2.95
2019-02-25T01:24:02.265Z,2.92
2019-02-25T01:25:02.443Z,2.83
2019-02-25T01:26:02.601Z,2.79
2019-02-25T01:27:02.773Z,2.71
2019-02-25T01:28:02.947Z,2.71
2019-02-25T01:29:03.131Z,2.67
2019-02-25T01:30:03.287Z,2.74
2019-02-25T01:31:03.453Z,2.74
2019-02-25T01:32:03.632Z,2.71
2019-02-25T01:33:03.800Z,2.62
2019-02-25T01:34:03.973Z,2.35
2019-02-25T01:35:04.144Z,2.36
2019-02-25T01:36:04.305Z,2.14
2019-02-25T01:37:04.481Z,1.97
2019-02-25T01:38:04.653Z,2.00
2019-02-25T01:39:04.836Z,1.88
2019-02-25T01:40:04.998Z,1.99
2019-02-25T01:41:05.164Z,1.95
2019-02-25T01:42:05.334Z,1.78
2019-02-25T01:43:05.502Z,1.89
2019-02-25T01:44:05.675Z,1.99
2019-02-25T01:45:05.852Z,2.14
2019-02-25T01:46:06.024Z,2.29
2019-02-25T01:47:06.191Z,2.32
2019-02-25T01:48:06.362Z,2.38
2019-02-25T01:49:06.547Z,2.24
2019-02-25T01:50:06.701Z,1.95
2019-02-25T01:51:06.867Z,2.11
2019-02-25T01:52:07.043Z,2.11
2019-02-25T01:53:07.212Z,2.15
2019-02-25T01:54:07.382Z,2.20
2019-02-25T01:55:07.557Z,2.24
2019-02-25T01:56:07.717Z,2.18
2019-02-25T01:57:07.891Z,2.17
2019-02-25T01:58:08.061Z,2.17
2019-02-25T01:59:08.240Z,2.18
2019-02-25T02:00:08.399Z,2.06
2019-02-25T02:01:08.570Z,2.07
2019-02-25T02:03:08.907Z,2.18
2019-02-25T02:04:09.076Z,2.17
2019-02-25T02:05:09.250Z,2.18
2019-02-25T02:06:09.418Z,2.20
2019-02-25T02:07:09.587Z,2.24
2019-02-25T02:08:09.762Z,2.25
2019-02-25T02:09:09.933Z,2.17
2019-02-25T02:10:10.099Z,2.14
2019-02-25T02:11:10.268Z,2.04
2019-02-25T02:12:10.437Z,2.10
2019-02-25T02:13:14.255Z,2.13
2019-02-25T02:14:10.783Z,2.08
2019-02-25T02:15:10.955Z,2.18
2019-02-25T02:16:11.125Z,2.13
2019-02-25T02:17:11.292Z,2.25
2019-02-25T02:18:11.474Z,2.28
2019-02-25T02:19:11.635Z,2.20
2019-02-25T02:20:11.799Z,2.02
2019-02-25T02:21:11.970Z,1.99
2019-02-25T02:22:12.155Z,1.91
2019-02-25T02:23:12.311Z,1.94
2019-02-25T02:24:12.484Z,1.92
2019-02-25T02:25:12.647Z,1.89
2019-02-25T02:26:12.814Z,1.84
2019-02-25T02:27:12.996Z,1.81
2019-02-25T02:28:13.157Z,1.91
2019-02-25T02:29:13.327Z,1.74
2019-02-25T02:30:13.500Z,1.94
2019-02-25T02:31:13.687Z,1.91
2019-02-25T02:32:13.837Z,2.11
2019-02-25T02:33:14.013Z,2.18
2019-02-25T02:34:14.173Z,2.04
2019-02-25T02:35:14.339Z,2.10
2019-02-25T02:36:14.505Z,2.18
2019-02-25T02:37:14.680Z,2.13
2019-02-25T02:38:14.850Z,2.18
2019-02-25T02:39:15.029Z,2.07
2019-02-25T02:40:15.214Z,1.94
2019-02-25T02:41:15.366Z,2.07
2019-02-25T02:42:15.532Z,2.07
2019-02-25T02:43:15.704Z,1.92
2019-02-25T02:44:15.877Z,2.08
2019-02-25T02:45:16.051Z,1.94
2019-02-25T02:46:16.207Z,2.00
2019-02-25T02:47:16.377Z,2.08
2019-02-25T02:48:16.546Z,2.07
2019-02-25T02:49:16.716Z,2.07
2019-02-25T02:50:16.891Z,2.20
2019-02-25T02:51:17.057Z,2.25
2019-02-25T02:52:17.239Z,2.25
2019-02-25T02:53:17.395Z,2.26
2019-02-25T02:54:17.569Z,2.20
2019-02-25T02:55:17.756Z,2.29
2019-02-25T02:56:17.911Z,2.33
2019-02-25T02:57:18.078Z,2.29
2019-02-25T02:58:18.246Z,2.26
2019-02-25T02:59:18.418Z,2.18
2019-02-25T03:00:18.592Z,2.18
2019-02-25T03:01:18.769Z,2.24
2019-02-25T03:02:18.924Z,2.17
2019-02-25T03:03:19.098Z,2.31
2019-02-25T03:04:19.278Z,2.32
2019-02-25T03:05:19.449Z,2.29
2019-02-25T03:06:19.603Z,2.25
2019-02-25T03:07:19.775Z,2.32
2019-02-25T03:08:19.945Z,2.33
2019-02-25T03:09:20.118Z,2.25
2019-02-25T03:10:20.304Z,2.38
2019-02-25T03:11:20.457Z,2.36
2019-02-25T03:12:20.623Z,2.28
2019-02-25T03:13:20.798Z,2.26
2019-02-25T03:14:20.969Z,2.29
2019-02-25T03:15:21.136Z,2.26
2019-02-25T03:16:21.311Z,2.28
2019-02-25T03:17:21.477Z,2.22
2019-02-25T03:18:21.672Z,2.26
2019-02-25T03:19:21.828Z,2.24
2019-02-25T03:20:21.989Z,2.42
2019-02-25T03:21:22.171Z,2.28
2019-02-25T03:22:22.326Z,2.22
2019-02-25T03:23:22.499Z,2.20
2019-02-25T03:24:22.660Z,2.14
2019-02-25T03:25:22.830Z,2.14
2019-02-25T03:26:23.013Z,2.10
2019-02-25T03:27:23.166Z,2.15
2019-02-25T03:28:23.337Z,2.02
2019-02-25T03:29:23.507Z,1.99
2019-02-25T03:30:23.685Z,1.99
2019-02-25T03:31:23.846Z,2.02
2019-02-25T03:32:24.021Z,2.06
2019-02-25T03:33:24.229Z,2.04
2019-02-25T03:34:24.406Z,1.99
2019-02-25T03:35:24.531Z,2.02
2019-02-25T03:36:24.699Z,2.08
2019-02-25T03:37:24.873Z,2.07
2019-02-25T03:38:25.047Z,2.06
2019-02-25T03:39:25.213Z,1.94
2019-02-25T03:40:25.389Z,1.94
2019-02-25T03:41:25.545Z,2.02
2019-02-25T03:42:25.716Z,1.99
2019-02-25T03:43:25.888Z,2.02
2019-02-25T03:44:26.060Z,2.02
2019-02-25T03:45:26.233Z,2.00
2019-02-25T03:46:26.394Z,1.77
2019-02-25T03:47:26.571Z,1.74
2019-02-25T03:48:26.739Z,1.76
2019-02-25T03:49:26.908Z,1.78
2019-02-25T03:50:27.074Z,1.80
2019-02-25T03:51:27.248Z,1.78
2019-02-25T03:52:27.425Z,1.80
2019-02-25T03:53:27.602Z,1.80
2019-02-25T03:54:27.762Z,1.80
2019-02-25T03:55:27.938Z,1.80
2019-02-25T03:56:28.100Z,1.84
2019-02-25T03:57:28.328Z,1.89
2019-02-25T03:58:28.442Z,1.99
2019-02-25T03:59:28.614Z,1.94
2019-02-25T04:00:28.794Z,2.10
2019-02-25T04:01:28.954Z,2.07
2019-02-25T04:02:29.134Z,2.10
2019-02-25T04:03:29.294Z,2.13
2019-02-25T04:04:29.465Z,1.99
2019-02-25T04:05:29.641Z,1.89
2019-02-25T04:06:29.804Z,1.80
2019-02-25T04:07:29.980Z,1.88
2019-02-25T04:08:30.147Z,1.67
2019-02-25T04:09:30.334Z,1.60
2019-02-25T04:10:30.483Z,1.74
2019-02-25T04:11:30.653Z,1.71
2019-02-25T04:12:30.824Z,1.76
2019-02-25T04:13:30.999Z,1.68
2019-02-25T04:14:31.171Z,1.70
2019-02-25T04:15:31.343Z,1.60
2019-02-25T04:16:31.512Z,1.60
2019-02-25T04:17:31.684Z,1.58
2019-02-25T04:18:31.864Z,1.55
2019-02-25T04:19:32.026Z,1.49
2019-02-25T04:20:32.196Z,1.40
2019-02-25T04:21:32.379Z,1.38
2019-02-25T04:22:32.543Z,1.50
2019-02-25T04:23:32.704Z,1.49
2019-02-25T04:24:32.877Z,1.48
2019-02-25T04:25:33.053Z,1.56
2019-02-25T04:26:33.222Z,1.58
2019-02-25T04:27:33.396Z,1.62
2019-02-25T04:28:33.561Z,1.66
2019-02-25T04:29:33.732Z,1.66
2019-02-25T04:30:33.905Z,1.53
2019-02-25T04:31:34.077Z,1.63
2019-02-25T04:32:34.258Z,1.56
2019-02-25T04:33:34.417Z,1.62
2019-02-25T04:34:34.584Z,1.59
2019-02-25T04:35:34.757Z,1.67
2019-02-25T04:36:34.929Z,1.70
2019-02-25T04:37:35.102Z,1.73
2019-02-25T04:38:35.266Z,1.78
2019-02-25T04:39:35.437Z,1.76
2019-02-25T04:40:35.612Z,1.85
2019-02-25T04:41:35.783Z,1.87
2019-02-25T04:42:35.949Z,1.87
2019-02-25T04:43:36.128Z,1.78
2019-02-25T04:44:36.310Z,1.80
2019-02-25T04:45:36.457Z,1.67
2019-02-25T04:46:36.628Z,1.56
2019-02-25T04:47:36.816Z,1.53
2019-02-25T04:48:36.981Z,1.41
2019-02-25T04:49:37.148Z,1.34
2019-02-25T04:50:37.321Z,1.37
2019-02-25T04:51:37.490Z,1.32
2019-02-25T04:52:37.659Z,1.22
2019-02-25T04:53:37.838Z,1.22
2019-02-25T04:54:38.008Z,1.20
2019-02-25T04:55:38.175Z,1.14
2019-02-25T04:56:38.332Z,1.20
2019-02-25T04:57:38.513Z,1.28
2019-02-25T04:58:38.673Z,1.26
2019-02-25T04:59:38.839Z,1.22
2019-02-25T05:00:39.016Z,1.26
2019-02-25T05:01:39.180Z,1.38
2019-02-25T05:02:39.354Z,1.23
2019-02-25T05:03:39.524Z,1.30
2019-02-25T05:04:39.688Z,1.23
2019-02-25T05:05:39.856Z,1.31
2019-02-25T05:06:40.030Z,1.37
2019-02-25T05:07:40.198Z,1.31
2019-02-25T05:08:40.369Z,1.38
2019-02-25T05:09:40.551Z,1.34
2019-02-25T05:10:40.710Z,1.40
2019-02-25T05:11:40.882Z,1.35
2019-02-25T05:12:41.055Z,1.41
2019-02-25T05:13:41.223Z,1.30
2019-02-25T05:14:41.395Z,1.35
2019-02-25T05:15:41.574Z,1.26
2019-02-25T05:16:41.736Z,1.22
2019-02-25T05:17:41.907Z,1.32
2019-02-25T05:18:42.075Z,1.19
2019-02-25T05:19:42.262Z,1.19
2019-02-25T05:20:42.415Z,1.22
2019-02-25T05:21:43.260Z,1.13
2019-02-25T05:22:43.324Z,1.20
2019-02-25T05:23:42.873Z,1.24
2019-02-25T05:24:43.039Z,1.24
2019-02-25T05:25:43.216Z,1.30
2019-02-25T05:26:43.375Z,1.19
2019-02-25T05:27:43.558Z,1.14
2019-02-25T05:28:43.717Z,1.14
2019-02-25T05:29:43.891Z,1.12
2019-02-25T05:30:44.067Z,1.24
2019-02-25T05:31:44.229Z,1.24
2019-02-25T05:32:44.395Z,1.23
2019-02-25T05:33:44.563Z,1.22
2019-02-25T05:34:44.745Z,1.22
2019-02-25T05:35:44.901Z,1.19
2019-02-25T05:36:45.074Z,1.14
2019-02-25T05:37:45.240Z,1.13
2019-02-25T05:38:45.413Z,1.19
2019-02-25T05:39:45.581Z,1.16
2019-02-25T05:40:45.761Z,1.22
2019-02-25T05:41:45.925Z,1.23
2019-02-25T05:42:46.113Z,1.28
2019-02-25T05:43:46.262Z,1.31
2019-02-25T05:44:46.431Z,1.31
2019-02-25T05:45:46.618Z,1.26
2019-02-25T05:46:46.782Z,1.23
2019-02-25T05:47:46.952Z,1.14
2019-02-25T05:48:47.120Z,1.17
2019-02-25T05:49:47.418Z,1.10
2019-02-25T05:50:49.533Z,1.19
2019-02-25T05:51:47.631Z,1.24
2019-02-25T05:52:47.801Z,1.22
2019-02-25T05:53:47.979Z,1.28
2019-02-25T05:54:48.147Z,1.16
2019-02-25T05:55:48.313Z,1.13
2019-02-25T05:56:48.491Z,1.13
2019-02-25T05:57:48.654Z,1.26
2019-02-25T05:58:48.822Z,1.16
2019-02-25T05:59:48.997Z,1.13
2019-02-25T06:00:49.162Z,1.10
2019-02-25T06:01:49.336Z,1.12
2019-02-25T06:02:49.507Z,0.99
2019-02-25T06:03:49.686Z,1.02
2019-02-25T06:04:49.861Z,0.96
2019-02-25T06:05:50.040Z,0.92
2019-02-25T06:06:50.195Z,0.88
2019-02-25T06:07:50.375Z,0.91
2019-02-25T06:08:50.544Z,0.84
2019-02-25T06:09:50.712Z,0.87
2019-02-25T06:10:50.891Z,0.98
2019-02-25T06:11:51.054Z,0.99
2019-02-25T06:12:51.222Z,1.06
2019-02-25T06:13:51.403Z,1.01
2019-02-25T06:14:51.563Z,1.04
2019-02-25T06:15:51.734Z,0.98
2019-02-25T06:16:51.899Z,1.02
2019-02-25T06:17:52.069Z,0.99
2019-02-25T06:18:52.242Z,0.99
2019-02-25T06:19:52.426Z,1.06
2019-02-25T06:20:52.577Z,1.20
2019-02-25T06:21:52.748Z,1.05
2019-02-25T06:22:52.921Z,1.08
2019-02-25T06:23:53.093Z,1.05
2019-02-25T06:24:53.260Z,1.10
2019-02-25T06:25:53.436Z,0.99
2019-02-25T06:26:53.587Z,1.04
2019-02-25T06:27:53.756Z,1.20
2019-02-25T06:29:54.083Z,1.13
2019-02-25T06:30:54.257Z,1.08
2019-02-25T06:31:54.423Z,1.19
2019-02-25T06:32:54.593Z,1.08
2019-02-25T06:33:54.765Z,1.04
2019-02-25T06:34:54.931Z,1.02
2019-02-25T06:35:55.114Z,0.96
2019-02-25T06:36:55.274Z,1.05
2019-02-25T06:37:55.446Z,1.01
2019-02-25T06:38:55.614Z,0.96
2019-02-25T06:39:55.785Z,0.94
2019-02-25T06:40:55.966Z,0.99
2019-02-25T06:41:56.134Z,0.99
2019-02-25T06:42:56.300Z,0.99
2019-02-25T06:43:56.481Z,0.98
2019-02-25T06:44:56.641Z,0.99
2019-02-25T06:45:56.812Z,1.08
2019-02-25T06:46:56.981Z,0.95
2019-02-25T06:47:57.153Z,0.88
2019-02-25T06:48:57.323Z,1.04
2019-02-25T06:49:57.497Z,0.98
2019-02-25T06:50:57.664Z,1.23
2019-02-25T06:51:57.833Z,1.59
2019-02-25T06:52:58.005Z,1.74
2019-02-25T06:53:58.172Z,2.02
2019-02-25T06:54:58.344Z,2.14
2019-02-25T06:55:58.523Z,2.36
2019-02-25T06:56:58.681Z,2.74
2019-02-25T06:57:58.904Z,3.05
2019-02-25T06:58:59.027Z,3.36
2019-02-25T06:59:59.198Z,3.65
2019-02-25T07:00:59.375Z,3.77
2019-02-25T07:01:59.547Z,3.96
2019-02-25T07:02:59.716Z,4.04
2019-02-25T07:03:59.887Z,4.34
2019-02-25T07:05:00.136Z,4.67
2019-02-25T07:06:00.229Z,4.75
2019-02-25T07:07:00.404Z,4.82
2019-02-25T07:08:00.626Z,4.87
2019-02-25T07:09:00.743Z,5.14
2019-02-25T07:10:00.915Z,5.07
2019-02-25T07:11:01.091Z,5.02
2019-02-25T07:12:01.261Z,5.28
2019-02-25T07:13:01.430Z,5.18
2019-02-25T07:14:01.606Z,5.32
2019-02-25T07:15:01.777Z,5.54
2019-02-25T07:16:01.951Z,5.71
2019-02-25T07:17:02.133Z,5.80
2019-02-25T07:18:02.293Z,5.76
2019-02-25T07:19:02.459Z,5.69
2019-02-25T07:20:02.631Z,5.57
2019-02-25T07:21:02.806Z,5.76
2019-02-25T07:22:02.973Z,5.97
2019-02-25T07:23:03.485Z,5.99
2019-02-25T07:24:03.321Z,6.14
2019-02-25T07:25:03.511Z,6.22
2019-02-25T07:26:03.711Z,6.46
2019-02-25T07:27:03.846Z,6.36
2019-02-25T07:28:04.019Z,6.27
2019-02-25T07:29:04.194Z,6.08
2019-02-25T07:30:04.372Z,5.79
2019-02-25T07:31:04.547Z,5.46
2019-02-25T07:32:04.721Z,5.18
2019-02-25T07:33:04.908Z,5.00
2019-02-25T07:34:05.087Z,4.80
2019-02-25T07:35:05.278Z,4.40
2019-02-25T07:36:05.444Z,4.30
2019-02-25T07:37:05.613Z,4.10
2019-02-25T07:38:05.799Z,3.88
2019-02-25T07:39:06.014Z,3.68
2019-02-25T07:40:06.154Z,3.51
2019-02-25T07:41:06.328Z,3.36
2019-02-25T07:42:06.504Z,3.41
2019-02-25T07:43:06.679Z,3.29
2019-02-25T07:44:06.861Z,3.13
2019-02-25T07:45:07.025Z,3.14
2019-02-25T07:46:07.184Z,3.16
2019-02-25T07:47:07.352Z,3.19
2019-02-25T07:48:07.537Z,3.31
2019-02-25T07:49:07.734Z,3.44
2019-02-25T07:50:07.890Z,3.48
2019-02-25T07:51:08.056Z,3.55
2019-02-25T07:52:08.228Z,3.47
2019-02-25T07:53:08.394Z,3.62
2019-02-25T07:54:08.573Z,3.68
2019-02-25T07:55:08.745Z,4.17
2019-02-25T07:56:08.922Z,4.96
2019-02-25T07:57:09.104Z,5.61
2019-02-25T07:58:09.278Z,6.11
2019-02-25T07:59:09.452Z,5.93
2019-02-25T08:00:09.627Z,5.65
2019-02-25T08:01:09.800Z,6.07
2019-02-25T08:02:09.982Z,6.41
2019-02-25T08:03:10.143Z,6.96
2019-02-25T08:04:10.318Z,7.24
2019-02-25T08:05:10.490Z,7.57
2019-02-25T08:06:11.999Z,7.61
2019-02-25T08:07:10.837Z,8.00
2019-02-25T08:08:11.014Z,8.48
2019-02-25T08:09:11.430Z,8.84
2019-02-25T08:10:11.364Z,8.70
2019-02-25T08:11:11.544Z,8.58
2019-02-25T08:12:11.716Z,8.81
2019-02-25T08:13:11.883Z,8.95
2019-02-25T08:14:12.787Z,8.67
2019-02-25T08:15:12.260Z,8.56
2019-02-25T08:16:12.484Z,8.55
2019-02-25T08:17:12.596Z,8.52
2019-02-25T08:18:12.773Z,8.16
2019-02-25T08:19:12.944Z,7.90
2019-02-25T08:20:13.137Z,8.15
2019-02-25T08:21:13.308Z,8.52
2019-02-25T08:22:13.474Z,8.82
2019-02-25T08:23:13.672Z,8.94
2019-02-25T08:24:13.836Z,8.71
2019-02-25T08:25:14.014Z,9.02
2019-02-25T08:26:14.178Z,9.23
2019-02-25T08:27:14.368Z,9.36
2019-02-25T08:28:14.568Z,9.72
2019-02-25T08:29:14.715Z,10.12
2019-02-25T08:30:14.910Z,10.09
2019-02-25T08:31:15.080Z,10.26
2019-02-25T08:32:15.257Z,10.53
2019-02-25T08:33:15.445Z,10.63
2019-02-25T08:34:18.753Z,10.40
2019-02-25T08:35:15.795Z,10.63
2019-02-25T08:36:15.966Z,10.63
2019-02-25T08:37:16.491Z,10.92
2019-02-25T08:38:16.358Z,11.17
2019-02-25T08:39:17.095Z,11.43
2019-02-25T08:40:16.717Z,11.45
2019-02-25T08:41:16.892Z,11.08
2019-02-25T08:42:17.068Z,11.10
2019-02-25T08:43:17.248Z,11.02
2019-02-25T08:44:17.431Z,10.49
2019-02-25T08:45:17.600Z,10.53
2019-02-25T08:46:17.777Z,10.86
2019-02-25T08:47:17.958Z,10.07
2019-02-25T08:48:18.142Z,10.31
2019-02-25T08:49:18.313Z,10.64
2019-02-25T08:50:18.495Z,10.26
2019-02-25T08:51:18.675Z,10.46
2019-02-25T08:52:18.856Z,10.19
2019-02-25T08:53:19.038Z,9.82
2019-02-25T08:54:19.221Z,10.22
2019-02-25T08:55:19.404Z,10.81
2019-02-25T08:56:19.573Z,11.25
2019-02-25T08:57:19.753Z,11.55
2019-02-25T08:58:19.929Z,10.96
2019-02-25T08:59:20.114Z,11.27
2019-02-25T09:00:20.292Z,11.19
2019-02-25T09:01:20.467Z,10.94
2019-02-25T09:02:20.646Z,11.00
2019-02-25T09:03:20.837Z,11.15
2019-02-25T09:04:21.000Z,11.07
2019-02-25T09:05:21.178Z,11.33
2019-02-25T09:06:21.357Z,11.62
2019-02-25T09:07:21.533Z,11.72
2019-02-25T09:08:21.703Z,12.25
2019-02-25T09:09:21.901Z,12.04
2019-02-25T09:10:22.063Z,11.91
2019-02-25T09:11:22.238Z,12.00
2019-02-25T09:12:22.436Z,12.31
2019-02-25T09:13:23.893Z,12.45
2019-02-25T09:14:22.778Z,12.32
2019-02-25T09:15:22.959Z,12.27
2019-02-25T09:16:23.140Z,12.65
2019-02-25T09:17:23.331Z,12.61
2019-02-25T09:18:23.503Z,12.73
2019-02-25T09:19:23.673Z,12.53
2019-02-25T09:20:23.857Z,12.91
2019-02-25T09:21:31.626Z,12.86
2019-02-25T09:22:24.238Z,13.15
2019-02-25T09:23:24.415Z,13.13
2019-02-25T09:24:24.613Z,13.23
2019-02-25T09:25:24.775Z,13.74
2019-02-25T09:26:24.975Z,13.50
2019-02-25T09:27:25.137Z,13.65
2019-02-25T09:28:25.331Z,13.12
2019-02-25T09:29:25.500Z,13.46
2019-02-25T09:30:25.681Z,13.42
2019-02-25T09:31:25.879Z,13.42
2019-02-25T09:32:26.041Z,13.37
2019-02-25T09:33:26.221Z,13.68
2019-02-25T09:34:26.401Z,13.90
2019-02-25T09:35:26.593Z,13.95
2019-02-25T09:36:26.761Z,13.95
2019-02-25T09:37:26.943Z,14.26
2019-02-25T09:38:27.124Z,14.40
2019-02-25T09:39:27.314Z,14.22
2019-02-25T09:40:27.486Z,14.10
2019-02-25T09:41:30.192Z,14.26
2019-02-25T09:42:27.857Z,14.08
2019-02-25T09:43:28.030Z,13.86
2019-02-25T09:44:28.211Z,14.03
2019-02-25T09:45:28.392Z,14.29
2019-02-25T09:46:28.577Z,14.91
2019-02-25T09:47:28.770Z,14.89
2019-02-25T09:48:28.963Z,15.35
2019-02-25T09:49:29.115Z,15.72
2019-02-25T09:50:29.301Z,15.77
2019-02-25T09:51:29.510Z,15.86
2019-02-25T09:52:29.665Z,16.31
2019-02-25T09:53:29.853Z,16.50
2019-02-25T09:54:30.018Z,16.81
2019-02-25T09:55:30.198Z,16.53
2019-02-25T09:56:30.384Z,16.56
2019-02-25T09:57:30.563Z,16.68
2019-02-25T09:58:30.741Z,16.94
2019-02-25T09:59:30.927Z,16.96
2019-02-25T10:00:31.110Z,16.50
2019-02-25T10:01:31.291Z,16.17
2019-02-25T10:02:31.484Z,16.74
2019-02-25T10:03:31.654Z,17.12
2019-02-25T10:04:31.836Z,16.89
2019-02-25T10:05:32.027Z,17.20
2019-02-25T10:06:32.210Z,16.97
2019-02-25T10:07:32.384Z,16.01
2019-02-25T10:08:32.567Z,16.51
2019-02-25T10:09:32.749Z,17.15
2019-02-25T10:10:32.935Z,17.39
2019-02-25T10:11:33.124Z,17.31
2019-02-25T10:12:33.301Z,17.52
2019-02-25T10:13:33.490Z,17.97
2019-02-25T10:14:33.669Z,17.76
2019-02-25T10:15:33.849Z,17.94
2019-02-25T10:16:34.028Z,18.01
2019-02-25T10:17:34.222Z,17.89
2019-02-25T10:18:34.397Z,17.57
2019-02-25T10:19:34.897Z,17.26
2019-02-25T10:20:34.760Z,17.78
2019-02-25T10:21:34.941Z,18.23
2019-02-25T10:22:35.125Z,18.56
2019-02-25T10:23:35.315Z,18.71
2019-02-25T10:24:35.501Z,18.86
2019-02-25T10:25:35.688Z,18.75
2019-02-25T10:26:35.880Z,18.74
2019-02-25T10:27:36.057Z,18.81
2019-02-25T10:28:36.233Z,18.73
2019-02-25T10:29:36.414Z,17.57
2019-02-25T10:30:36.605Z,17.56
2019-02-25T10:31:38.108Z,16.01
2019-02-25T10:32:36.973Z,16.16
2019-02-25T10:33:37.153Z,16.84
2019-02-25T10:34:37.341Z,16.78
2019-02-25T10:35:37.518Z,17.09
2019-02-25T10:36:37.703Z,17.63
2019-02-25T10:37:38.766Z,17.90
2019-02-25T10:38:38.068Z,18.08
2019-02-25T10:39:38.251Z,18.44
2019-02-25T10:40:38.452Z,18.40
2019-02-25T10:41:38.629Z,18.75
2019-02-25T10:42:38.818Z,18.98
2019-02-25T10:43:39.009Z,18.55
2019-02-25T10:44:40.256Z,18.52
2019-02-25T10:45:41.065Z,18.50
2019-02-25T10:46:40.845Z,18.78
2019-02-25T10:47:39.726Z,18.83
2019-02-25T10:48:39.916Z,18.74
2019-02-25T10:49:40.087Z,18.63
2019-02-25T10:50:40.914Z,18.86
2019-02-25T10:51:41.267Z,18.84
2019-02-25T10:52:41.322Z,18.99
2019-02-25T10:53:40.827Z,18.44
2019-02-25T10:54:41.010Z,18.95
2019-02-25T10:55:44.530Z,19.31
2019-02-25T10:56:41.379Z,19.56
2019-02-25T10:57:41.556Z,19.56
2019-02-25T10:58:41.739Z,19.34
2019-02-25T10:59:41.928Z,19.63
2019-02-25T11:00:43.684Z,19.74
2019-02-25T11:01:43.432Z,19.30
2019-02-25T11:02:44.391Z,19.41
2019-02-25T11:03:43.525Z,19.94
2019-02-25T11:04:42.843Z,19.89
2019-02-25T11:05:43.034Z,19.40
2019-02-25T11:06:43.215Z,19.71
2019-02-25T11:07:43.400Z,19.76
2019-02-25T11:08:45.618Z,20.14
2019-02-25T11:09:45.688Z,20.22
2019-02-25T11:10:44.561Z,20.26
2019-02-25T11:11:44.210Z,20.40
2019-02-25T11:12:44.396Z,20.48
2019-02-25T11:13:44.581Z,20.06
2019-02-25T11:14:44.763Z,20.25
2019-02-25T11:15:47.824Z,20.26
2019-02-25T11:16:46.095Z,19.81
2019-02-25T11:17:45.858Z,19.48
2019-02-25T11:18:45.504Z,19.71
2019-02-25T11:19:45.685Z,19.70
2019-02-25T11:20:45.868Z,20.48
2019-02-25T11:21:46.051Z,20.93
2019-02-25T11:22:48.425Z,20.58
2019-02-25T11:23:47.197Z,20.04
2019-02-25T11:24:49.005Z,20.34
2019-02-25T11:25:46.800Z,20.62
2019-02-25T11:26:46.995Z,20.81
2019-02-25T11:27:47.175Z,20.62
2019-02-25T11:28:47.361Z,20.65
2019-02-25T11:29:48.454Z,20.93
2019-02-25T11:30:49.805Z,21.25
2019-02-25T11:31:49.516Z,21.36
2019-02-25T11:32:49.126Z,20.26
2019-02-25T11:33:48.298Z,20.11
2019-02-25T11:34:48.504Z,20.72
2019-02-25T11:35:48.670Z,20.66
2019-02-25T11:36:50.964Z,20.37
2019-02-25T11:37:50.090Z,20.13
2019-02-25T11:38:49.492Z,20.52
2019-02-25T11:39:49.417Z,20.58
2019-02-25T11:40:49.663Z,20.48
2019-02-25T11:41:49.841Z,20.48
2019-02-25T11:42:50.028Z,19.96
2019-02-25T11:43:52.574Z,20.92
2019-02-25T11:44:51.955Z,20.40
2019-02-25T11:45:51.185Z,21.17
2019-02-25T11:46:50.826Z,21.61
2019-02-25T11:47:51.020Z,22.20
2019-02-25T11:48:51.192Z,22.78
2019-02-25T11:49:51.472Z,21.43
2019-02-25T11:50:51.557Z,21.00
2019-02-25T11:51:51.742Z,21.60
2019-02-25T11:52:52.014Z,22.07
2019-02-25T11:53:52.190Z,22.83
2019-02-25T11:54:52.557Z,23.09
2019-02-25T11:55:52.609Z,23.05
2019-02-25T11:56:52.813Z,21.89
2019-02-25T11:57:52.985Z,20.43
2019-02-25T11:58:53.231Z,20.55
2019-02-25T11:59:54.026Z,21.39
2019-02-25T12:00:53.411Z,21.79
2019-02-25T12:01:53.598Z,21.88
2019-02-25T12:02:53.786Z,22.15
2019-02-25T12:03:54.005Z,22.33
2019-02-25T12:04:54.199Z,22.39
2019-02-25T12:05:54.382Z,21.37
2019-02-25T12:06:54.642Z,22.06
2019-02-25T12:07:54.734Z,22.20
2019-02-25T12:08:54.928Z,22.47
2019-02-25T12:09:55.118Z,22.66
2019-02-25T12:10:55.324Z,22.62
2019-02-25T12:11:55.501Z,22.75
2019-02-25T12:12:55.681Z,22.29
2019-02-25T12:13:55.872Z,22.43
2019-02-25T12:14:56.056Z,22.69
2019-02-25T12:15:56.247Z,21.98
2019-02-25T12:16:56.436Z,21.36
2019-02-25T12:17:56.620Z,20.56
2019-02-25T12:18:56.806Z,20.22
2019-02-25T12:19:56.997Z,20.41
2019-02-25T12:20:57.173Z,20.28
2019-02-25T12:21:57.368Z,19.45
2019-02-25T12:22:57.568Z,19.70
2019-02-25T12:23:57.763Z,19.41
2019-02-25T12:24:57.951Z,19.30
2019-02-25T12:25:58.170Z,18.80
2019-02-25T12:26:58.362Z,18.83
2019-02-25T12:27:58.546Z,18.92
2019-02-25T12:28:58.724Z,19.30
2019-02-25T12:29:58.911Z,19.48
2019-02-25T12:30:59.091Z,19.07
2019-02-25T12:31:59.279Z,19.09
2019-02-25T12:32:59.455Z,19.12
2019-02-25T12:33:59.638Z,18.80
2019-02-25T12:34:59.914Z,18.92
2019-02-25T12:35:59.967Z,18.86
2019-02-25T12:37:00.190Z,19.02
2019-02-25T12:38:00.362Z,19.08
2019-02-25T12:39:00.534Z,18.88
2019-02-25T12:40:00.720Z,18.92
2019-02-25T12:41:00.887Z,18.99
2019-02-25T12:42:01.089Z,19.12
2019-02-25T12:43:01.262Z,19.09
2019-02-25T12:44:01.453Z,19.18
2019-02-25T12:45:01.643Z,19.12
2019-02-25T12:46:01.808Z,19.15
2019-02-25T12:47:01.990Z,18.96
2019-02-25T12:48:02.169Z,18.62
2019-02-25T12:49:02.350Z,18.68
2019-02-25T12:50:02.536Z,18.73
2019-02-25T12:51:02.746Z,18.78
2019-02-25T12:52:02.885Z,18.80
2019-02-25T12:53:03.079Z,18.70
2019-02-25T12:54:03.273Z,18.83
2019-02-25T12:55:03.468Z,18.99
2019-02-25T12:56:03.652Z,19.14
2019-02-25T12:57:03.841Z,18.93
2019-02-25T12:58:04.030Z,19.08
2019-02-25T12:59:05.292Z,19.02
2019-02-25T13:00:04.381Z,19.24
2019-02-25T13:01:04.562Z,19.22
2019-02-25T13:02:04.766Z,19.29
2019-02-25T13:03:04.935Z,19.12
2019-02-25T13:04:05.114Z,19.15
2019-02-25T13:05:05.297Z,19.40
2019-02-25T13:06:05.485Z,19.41
2019-02-25T13:07:05.662Z,19.36
2019-02-25T13:08:06.228Z,19.40
2019-02-25T13:09:06.035Z,19.30
2019-02-25T13:10:06.215Z,19.36
2019-02-25T13:11:06.410Z,19.39
2019-02-25T13:12:06.579Z,19.45
2019-02-25T13:13:06.787Z,19.14
2019-02-25T13:14:06.967Z,19.15